TimeMST,TemperatureF,Dew PointF,Humidity,Sea Level PressureIn,VisibilityMPH,Wind Direction,Wind SpeedMPH,Gust SpeedMPH,PrecipitationIn,Events,Conditions,WindDirDegrees,DateUTC
12:15 AM,23.0,19.4,86,29.89,-9999.0,North,-9999.0,-,N/A,,Unknown,0,2012-11-10 07:15:00
12:35 AM,23.0,19.4,86,29.88,-9999.0,North,-9999.0,-,N/A,,Overcast,0,2012-11-10 07:35:00
12:55 AM,23.0,21.2,93,29.87,-9999.0,North,-9999.0,-,N/A,,Overcast,0,2012-11-10 07:55:00
1:15 AM,23.0,21.2,93,29.86,-9999.0,North,-9999.0,-,N/A,,Overcast,0,2012-11-10 08:15:00
1:35 AM,23.0,21.2,93,29.84,-9999.0,SSW,34.5,-,N/A,,Overcast,210,2012-11-10 08:35:00
1:55 AM,23.0,21.2,93,29.83,-9999.0,North,-9999.0,-,N/A,,Overcast,0,2012-11-10 08:55:00
2:15 AM,23.0,21.2,93,29.82,-9999.0,North,-9999.0,-,N/A,,Overcast,0,2012-11-10 09:15:00
2:35 AM,23.0,21.2,93,29.80,-9999.0,North,-9999.0,-,N/A,,Overcast,0,2012-11-10 09:35:00
2:55 AM,23.0,23.0,100,29.78,-9999.0,North,-9999.0,-,N/A,,Overcast,0,2012-11-10 09:55:00
3:15 AM,23.0,23.0,100,29.77,-9999.0,North,-9999.0,-,N/A,,Overcast,0,2012-11-10 10:15:00
3:35 AM,23.0,23.0,100,29.76,-9999.0,North,-9999.0,-,N/A,,Overcast,0,2012-11-10 10:35:00
3:55 AM,23.0,21.2,93,29.74,-9999.0,North,-9999.0,-,N/A,,Overcast,0,2012-11-10 10:55:00
4:15 AM,23.0,21.2,93,29.73,-9999.0,SW,41.4,-,N/A,,Overcast,220,2012-11-10 11:15:00
4:35 AM,23.0,23.0,100,29.71,-9999.0,North,-9999.0,-,N/A,,Overcast,0,2012-11-10 11:35:00
5:15 AM,23.0,23.0,100,29.71,-9999.0,SW,49.5,56.4,N/A,,Overcast,230,2012-11-10 12:15:00
5:35 AM,23.0,23.0,100,29.70,-9999.0,SW,43.7,56.4,N/A,,Overcast,230,2012-11-10 12:35:00
5:55 AM,23.0,23.0,100,29.70,-9999.0,SW,39.1,50.6,N/A,,Overcast,230,2012-11-10 12:55:00
6:15 AM,23.0,23.0,100,29.70,-9999.0,SW,38.0,44.9,N/A,,Overcast,230,2012-11-10 13:15:00
6:35 AM,21.2,21.2,100,29.70,-9999.0,North,-9999.0,-,N/A,,Overcast,0,2012-11-10 13:35:00
6:55 AM,21.2,19.4,93,29.71,-9999.0,North,-9999.0,-,N/A,,Overcast,0,2012-11-10 13:55:00
7:15 AM,21.2,19.4,93,29.71,-9999.0,North,-9999.0,-,N/A,,Overcast,0,2012-11-10 14:15:00
7:35 AM,21.2,19.4,93,29.71,-9999.0,North,-9999.0,-,N/A,,Overcast,0,2012-11-10 14:35:00
7:55 AM,21.2,19.4,93,29.72,-9999.0,North,-9999.0,-,N/A,,Overcast,0,2012-11-10 14:55:00
8:15 AM,19.4,17.6,93,29.72,-9999.0,North,-9999.0,-,N/A,,Overcast,0,2012-11-10 15:15:00
8:35 AM,19.4,17.6,93,29.72,-9999.0,North,-9999.0,-,N/A,,Overcast,0,2012-11-10 15:35:00
8:55 AM,19.4,17.6,93,29.70,-9999.0,North,-9999.0,-,N/A,,Overcast,0,2012-11-10 15:55:00
9:15 AM,17.6,15.8,93,29.70,-9999.0,North,-9999.0,-,N/A,,Overcast,0,2012-11-10 16:15:00
9:35 AM,17.6,14.0,86,29.69,-9999.0,North,-9999.0,-,N/A,,Overcast,0,2012-11-10 16:35:00
9:55 AM,17.6,14.0,86,29.70,-9999.0,North,-9999.0,-,N/A,,Overcast,0,2012-11-10 16:55:00
10:15 AM,15.8,14.0,93,29.73,-9999.0,North,-9999.0,-,N/A,,Overcast,0,2012-11-10 17:15:00
10:35 AM,17.6,14.0,86,29.72,-9999.0,North,-9999.0,-,N/A,,Overcast,0,2012-11-10 17:35:00
10:55 AM,15.8,12.2,86,29.71,-9999.0,North,-9999.0,-,N/A,,Overcast,0,2012-11-10 17:55:00
11:15 AM,14.0,12.2,93,29.71,-9999.0,North,-9999.0,-,N/A,,Overcast,0,2012-11-10 18:15:00
11:35 AM,14.0,12.2,93,29.69,-9999.0,North,-9999.0,-,N/A,,Overcast,0,2012-11-10 18:35:00
11:55 AM,14.0,12.2,93,29.68,-9999.0,North,-9999.0,-,N/A,,Overcast,0,2012-11-10 18:55:00
12:15 PM,14.0,12.2,93,29.68,-9999.0,North,-9999.0,-,N/A,,Overcast,0,2012-11-10 19:15:00
12:35 PM,14.0,10.4,86,29.67,-9999.0,North,-9999.0,-,N/A,,Overcast,0,2012-11-10 19:35:00
12:55 PM,14.0,10.4,86,29.66,-9999.0,North,-9999.0,-,N/A,,Overcast,0,2012-11-10 19:55:00
1:15 PM,12.2,10.4,92,29.66,-9999.0,North,-9999.0,-,N/A,,Overcast,0,2012-11-10 20:15:00
1:35 PM,12.2,10.4,92,29.64,-9999.0,North,-9999.0,-,N/A,,Overcast,0,2012-11-10 20:35:00
1:55 PM,12.2,8.6,85,29.64,-9999.0,North,-9999.0,-,N/A,,Overcast,0,2012-11-10 20:55:00
2:15 PM,10.4,8.6,92,29.65,-9999.0,North,-9999.0,-,N/A,,Overcast,0,2012-11-10 21:15:00
2:35 PM,10.4,8.6,92,29.66,-9999.0,North,-9999.0,-,N/A,,Unknown,0,2012-11-10 21:35:00
2:55 PM,10.4,6.8,85,29.67,-9999.0,North,-9999.0,-,N/A,,Overcast,0,2012-11-10 21:55:00
3:15 PM,10.4,8.6,92,29.67,-9999.0,North,-9999.0,-,N/A,,Overcast,0,2012-11-10 22:15:00
3:35 PM,10.4,6.8,85,29.67,-9999.0,North,-9999.0,-,N/A,,Unknown,0,2012-11-10 22:35:00
3:55 PM,8.6,5.0,85,29.67,-9999.0,North,-9999.0,-,N/A,,Unknown,0,2012-11-10 22:55:00
4:15 PM,8.6,5.0,85,29.69,-9999.0,North,-9999.0,-,N/A,,Unknown,0,2012-11-10 23:15:00
4:35 PM,8.6,3.2,79,29.68,-9999.0,North,-9999.0,-,N/A,,Unknown,0,2012-11-10 23:35:00
4:55 PM,6.8,3.2,85,29.71,-9999.0,North,-9999.0,-,N/A,,Unknown,0,2012-11-10 23:55:00
5:15 PM,5.0,3.2,92,29.71,-9999.0,North,-9999.0,-,N/A,,Unknown,0,2012-11-11 00:15:00
5:35 PM,5.0,3.2,92,29.71,-9999.0,North,-9999.0,-,N/A,,Unknown,0,2012-11-11 00:35:00
5:55 PM,5.0,3.2,92,29.72,-9999.0,North,-9999.0,-,N/A,,Unknown,0,2012-11-11 00:55:00
6:15 PM,5.0,3.2,92,29.73,-9999.0,North,-9999.0,-,N/A,,Unknown,0,2012-11-11 01:15:00
6:35 PM,5.0,1.4,85,29.74,-9999.0,North,-9999.0,-,N/A,,Overcast,0,2012-11-11 01:35:00
6:55 PM,5.0,3.2,92,29.75,-9999.0,North,-9999.0,-,N/A,,Overcast,0,2012-11-11 01:55:00
7:15 PM,5.0,1.4,85,29.76,-9999.0,North,-9999.0,-,N/A,,Unknown,0,2012-11-11 02:15:00
7:35 PM,5.0,1.4,85,29.77,-9999.0,North,-9999.0,-,N/A,,Mostly Cloudy,0,2012-11-11 02:35:00
8:35 PM,5.0,1.4,85,29.78,-9999.0,North,-9999.0,-,N/A,,Mostly Cloudy,0,2012-11-11 03:35:00
9:15 PM,3.2,1.4,92,29.78,-9999.0,North,-9999.0,-,N/A,,Unknown,0,2012-11-11 04:15:00
9:35 PM,3.2,-0.4,85,29.78,-9999.0,North,-9999.0,-,N/A,,Unknown,0,2012-11-11 04:35:00
9:55 PM,3.2,-0.4,85,29.78,-9999.0,North,-9999.0,-,N/A,,Unknown,0,2012-11-11 04:55:00
10:15 PM,3.2,-0.4,85,29.77,-9999.0,North,-9999.0,-,N/A,,Unknown,0,2012-11-11 05:15:00
10:35 PM,3.2,-0.4,85,29.75,-9999.0,North,-9999.0,-,N/A,,Unknown,0,2012-11-11 05:35:00
10:55 PM,3.2,-0.4,85,29.74,-9999.0,North,-9999.0,-,N/A,,Unknown,0,2012-11-11 05:55:00
11:15 PM,3.2,-0.4,85,29.75,-9999.0,North,-9999.0,-,N/A,,Unknown,0,2012-11-11 06:15:00
11:35 PM,3.2,-0.4,85,29.76,-9999.0,North,-9999.0,-,N/A,,Unknown,0,2012-11-11 06:35:00
11:55 PM,3.2,-0.4,85,29.76,-9999.0,North,-9999.0,-,N/A,,Overcast,0,2012-11-11 06:55:00